Time;durP1;ratioP1;P1;durP2;ratioP2;P2;SDS_P1;SDS_P2;PMS_P1;PMS_P2;Temp;Humidity;BMP_temperature;BMP_pressure;BME280_temperature;BME280_humidity;BME280_pressure;Samples;Min_cycle;Max_cycle;Signal;HPM_P1;HPM_P2
2021/04/28 00:02:02;;;;;;;12.10;9.93;;;10.40;67.50;;;;;;5094161;28;20591;-41
2021/04/28 00:04:29;;;;;;;11.45;10.27;;;10.40;67.90;;;;;;5093841;28;20206;-41
2021/04/28 00:06:56;;;;;;;11.35;9.27;;;10.40;68.40;;;;;;5093555;28;20243;-43
2021/04/28 00:09:24;;;;;;;11.82;10.07;;;10.40;68.70;;;;;;5093700;28;20263;-41
2021/04/28 00:11:51;;;;;;;15.32;10.65;;;10.40;69.00;;;;;;5093411;28;20632;-44
2021/04/28 00:14:17;;;;;;;10.80;9.32;;;10.30;69.30;;;;;;5093778;28;20253;-42
2021/04/28 00:16:45;;;;;;;11.48;9.68;;;10.30;69.70;;;;;;5093789;28;20203;-42
2021/04/28 00:19:12;;;;;;;11.77;10.48;;;10.30;70.10;;;;;;5093633;28;20234;-40
2021/04/28 00:21:40;;;;;;;11.32;9.15;;;10.20;70.40;;;;;;5093524;28;20207;-41
2021/04/28 00:24:08;;;;;;;10.80;9.18;;;10.20;70.80;;;;;;5093319;28;20715;-41
2021/04/28 00:26:35;;;;;;;12.45;10.15;;;10.20;71.20;;;;;;5093353;28;20250;-40
2021/04/28 00:29:03;;;;;;;11.90;10.70;;;10.10;71.50;;;;;;5092742;28;20599;-40
2021/04/28 00:31:31;;;;;;;12.45;9.75;;;10.10;71.80;;;;;;5093638;28;20629;-40
2021/04/28 00:33:59;;;;;;;15.63;10.32;;;10.10;72.10;;;;;;5092958;28;20272;-40
2021/04/28 00:36:26;;;;;;;11.73;10.52;;;10.10;72.50;;;;;;5093425;28;20210;-41
2021/04/28 00:38:53;;;;;;;11.68;10.48;;;10.10;72.80;;;;;;5093243;28;20210;-41
2021/04/28 00:41:20;;;;;;;13.88;10.13;;;10.10;73.10;;;;;;5093398;28;20216;-41
2021/04/28 00:43:48;;;;;;;10.73;9.65;;;10.00;73.30;;;;;;5093411;28;20604;-41
2021/04/28 00:46:14;;;;;;;10.75;9.57;;;10.00;73.60;;;;;;5093207;28;20297;-42
2021/04/28 00:48:42;;;;;;;13.05;11.70;;;10.00;74.00;;;;;;5092986;28;20677;-42
2021/04/28 00:51:10;;;;;;;11.57;10.13;;;10.00;74.20;;;;;;5093096;28;20297;-42
2021/04/28 00:53:37;;;;;;;14.00;11.52;;;10.00;74.50;;;;;;5092944;28;20226;-40
2021/04/28 00:56:05;;;;;;;11.27;10.10;;;9.90;74.80;;;;;;5093195;28;20218;-40
2021/04/28 00:58:32;;;;;;;13.73;12.30;;;9.90;75.10;;;;;;5093089;28;20202;-41
2021/04/28 01:00:59;;;;;;;11.68;10.48;;;9.90;75.30;;;;;;5092753;28;20242;-41
2021/04/28 01:03:27;;;;;;;11.63;10.43;;;9.90;75.60;;;;;;5092709;28;20297;-41
2021/04/28 01:05:57;;;;;;;10.13;9.18;;;9.90;75.90;;;;;;5092530;28;20239;-41
2021/04/28 01:08:25;;;;;;;11.68;10.57;;;9.90;76.10;;;;;;5092600;28;20297;-41
2021/04/28 01:10:56;;;;;;;13.20;10.65;;;9.90;76.40;;;;;;5092812;28;20212;-43
2021/04/28 01:13:24;;;;;;;11.50;10.40;;;9.80;76.50;;;;;;5092824;28;20262;-41
2021/04/28 01:15:52;;;;;;;21.05;12.00;;;9.80;76.90;;;;;;5092730;28;20202;-42
2021/04/28 01:18:20;;;;;;;11.82;10.50;;;9.80;77.20;;;;;;5092453;28;20297;-42
2021/04/28 01:20:48;;;;;;;12.98;9.73;;;9.70;77.40;;;;;;5092614;28;20373;-41
2021/04/28 01:23:16;;;;;;;14.55;11.05;;;9.70;77.70;;;;;;5092630;28;20209;-40
2021/04/28 01:25:44;;;;;;;13.15;11.80;;;9.70;77.90;;;;;;5092490;28;20315;-41
2021/04/28 01:28:13;;;;;;;11.10;10.00;;;9.70;78.10;;;;;;5092719;28;20293;-41
2021/04/28 01:30:43;;;;;;;12.38;10.93;;;9.70;78.40;;;;;;5092330;28;20289;-42
2021/04/28 01:33:14;;;;;;;12.90;11.02;;;9.70;78.70;;;;;;5092290;28;20366;-42
2021/04/28 01:35:44;;;;;;;12.00;10.85;;;9.60;78.80;;;;;;5092511;28;20260;-41
2021/04/28 01:38:11;;;;;;;12.15;10.70;;;9.60;79.10;;;;;;5092228;28;20294;-42
2021/04/28 01:40:40;;;;;;;11.88;10.50;;;9.60;79.40;;;;;;5091536;28;20293;-41
2021/04/28 01:43:07;;;;;;;12.45;10.25;;;9.50;80.30;;;;;;5092160;28;20661;-41
2021/04/28 01:45:34;;;;;;;12.45;11.07;;;9.50;79.90;;;;;;5092052;28;20290;-42
2021/04/28 01:48:04;;;;;;;12.45;10.38;;;9.50;80.20;;;;;;5092451;28;20202;-41
2021/04/28 01:50:32;;;;;;;12.13;10.63;;;9.50;80.50;;;;;;5092392;28;20539;-41
2021/04/28 01:53:00;;;;;;;12.68;11.00;;;9.40;80.70;;;;;;5092170;28;20730;-41
2021/04/28 01:55:27;;;;;;;12.30;11.07;;;9.40;81.00;;;;;;5092318;28;20210;-40
2021/04/28 01:57:55;;;;;;;11.82;10.40;;;9.40;81.20;;;;;;5092002;28;20719;-42
2021/04/28 02:00:23;;;;;;;11.52;10.20;;;9.40;81.50;;;;;;5091916;28;20649;-41
2021/04/28 02:02:51;;;;;;;12.38;11.20;;;9.40;81.80;;;;;;5092237;28;20621;-40
2021/04/28 02:05:20;;;;;;;12.60;10.48;;;9.30;82.00;;;;;;5092038;28;20269;-41
2021/04/28 02:07:47;;;;;;;12.05;10.85;;;9.30;82.30;;;;;;5091971;28;20722;-40
2021/04/28 02:10:15;;;;;;;12.68;11.48;;;9.30;82.60;;;;;;5091956;28;20731;-40
2021/04/28 02:12:43;;;;;;;12.63;10.73;;;9.30;82.80;;;;;;5091679;28;20314;-41
2021/04/28 02:15:12;;;;;;;12.18;11.05;;;9.20;83.10;;;;;;5092092;28;20210;-41
2021/04/28 02:17:40;;;;;;;11.50;10.30;;;9.20;83.40;;;;;;5091968;28;20206;-41
2021/04/28 02:20:10;;;;;;;11.45;10.35;;;9.20;83.70;;;;;;5091898;28;20377;-41
2021/04/28 02:22:38;;;;;;;15.13;11.57;;;9.20;83.80;;;;;;5091933;28;20211;-41
2021/04/28 02:25:07;;;;;;;13.02;11.75;;;9.20;84.00;;;;;;5091747;28;20210;-41
2021/04/28 02:27:34;;;;;;;13.75;11.95;;;9.10;84.30;;;;;;5091722;28;20734;-40
2021/04/28 02:30:04;;;;;;;12.27;10.65;;;9.10;84.50;;;;;;5091794;28;20625;-41
2021/04/28 02:32:32;;;;;;;13.50;12.10;;;9.10;84.70;;;;;;5091594;28;20242;-40
2021/04/28 02:34:59;;;;;;;12.77;11.55;;;9.10;84.90;;;;;;5091770;28;20215;-40
2021/04/28 02:37:28;;;;;;;14.05;12.38;;;9.10;85.10;;;;;;5091871;28;20294;-40
2021/04/28 02:40:02;;;;;;;12.45;11.15;;;9.10;85.30;;;;;;5091620;28;20217;-40
2021/04/28 02:42:30;;;;;;;13.98;12.65;;;9.00;85.60;;;;;;5091830;28;20210;-40
2021/04/28 02:44:58;;;;;;;14.10;12.70;;;9.00;85.80;;;;;;5091778;28;20293;-40
2021/04/28 02:47:27;;;;;;;13.30;12.02;;;9.00;86.00;;;;;;5091753;28;20286;-40
2021/04/28 02:49:55;;;;;;;17.48;12.90;;;9.00;86.30;;;;;;5091584;28;20222;-39
2021/04/28 02:52:24;;;;;;;13.23;11.95;;;8.90;86.50;;;;;;5094929;28;20263;-40
2021/04/28 02:54:51;;;;;;;12.75;11.55;;;8.90;86.80;;;;;;5095359;28;20293;-40
2021/04/28 02:57:21;;;;;;;12.75;11.55;;;8.90;86.90;;;;;;5095319;28;20253;-41
2021/04/28 02:59:50;;;;;;;15.00;12.13;;;8.90;87.20;;;;;;5095172;28;20297;-41
2021/04/28 03:02:18;;;;;;;13.70;11.70;;;8.80;87.40;;;;;;5095200;28;20302;-40
2021/04/28 03:04:46;;;;;;;14.00;12.50;;;8.80;87.70;;;;;;5095005;28;20284;-40
2021/04/28 03:07:15;;;;;;;13.57;12.32;;;8.70;87.80;;;;;;5095140;28;20306;-40
2021/04/28 03:09:43;;;;;;;12.98;11.77;;;8.70;88.20;;;;;;5095060;28;20684;-41
2021/04/28 03:12:11;;;;;;;13.63;12.32;;;8.60;88.40;;;;;;5095038;28;20293;-40
2021/04/28 03:14:38;;;;;;;16.52;12.82;;;8.60;88.80;;;;;;5094786;28;20230;-40
2021/04/28 03:17:05;;;;;;;12.90;11.55;;;8.50;89.20;;;;;;5094703;28;20242;-41
2021/04/28 03:19:35;;;;;;;14.77;11.60;;;8.50;89.60;;;;;;5095107;28;20238;-41
2021/04/28 03:22:02;;;;;;;12.80;11.55;;;8.40;90.00;;;;;;5094937;28;20210;-39
2021/04/28 03:24:30;;;;;;;14.65;13.07;;;8.30;90.20;;;;;;5094647;28;20604;-40
2021/04/28 03:27:08;;;;;;;14.73;13.20;;;8.30;90.40;;;;;;5094640;28;20662;-40
2021/04/28 03:29:36;;;;;;;14.23;12.57;;;8.20;90.70;;;;;;5094638;28;20297;-40
2021/04/28 03:32:04;;;;;;;12.80;11.50;;;8.20;90.80;;;;;;5094458;28;20249;-40
2021/04/28 03:34:33;;;;;;;12.88;11.38;;;8.20;90.90;;;;;;5094656;28;20602;-40
2021/04/28 03:37:01;;;;;;;15.93;12.30;;;8.20;90.90;;;;;;5094481;28;20210;-40
2021/04/28 03:39:28;;;;;;;13.18;11.77;;;8.20;90.80;;;;;;5094406;28;20289;-39
2021/04/28 03:41:56;;;;;;;14.27;12.48;;;8.20;90.90;;;;;;5094374;28;20206;-41
2021/04/28 03:44:24;;;;;;;14.13;12.68;;;8.20;91.30;;;;;;5094179;28;20665;-41
2021/04/28 03:46:51;;;;;;;16.27;12.43;;;8.20;91.10;;;;;;5094364;28;20211;-40
2021/04/28 03:49:18;;;;;;;13.75;12.27;;;8.20;91.10;;;;;;5094242;28;20210;-41
2021/04/28 03:51:45;;;;;;;40.00;14.85;;;8.20;91.20;;;;;;5094258;28;20298;-41
2021/04/28 03:54:13;;;;;;;15.32;12.30;;;8.20;91.20;;;;;;5093908;28;20317;-41
2021/04/28 03:56:41;;;;;;;13.10;11.52;;;8.20;91.30;;;;;;5093991;28;20691;-41
2021/04/28 03:59:10;;;;;;;17.08;13.07;;;8.10;91.30;;;;;;5093814;28;20217;-41
2021/04/28 04:01:38;;;;;;;18.77;13.48;;;8.10;91.40;;;;;;5093418;28;20318;-38
2021/04/28 04:04:05;;;;;;;14.02;12.63;;;8.10;91.50;;;;;;5093123;28;20203;-39
2021/04/28 04:06:37;;;;;;;17.95;13.88;;;8.10;91.60;;;;;;5093514;28;20241;-39
2021/04/28 04:09:05;;;;;;;15.18;12.15;;;8.10;91.70;;;;;;5093613;28;20572;-40
2021/04/28 04:11:32;;;;;;;14.40;13.00;;;8.10;91.70;;;;;;5093539;28;20333;-39
2021/04/28 04:13:59;;;;;;;16.08;13.05;;;8.10;91.70;;;;;;5093635;28;20257;-40
2021/04/28 04:16:27;;;;;;;19.90;14.70;;;8.10;91.70;;;;;;5093532;28;20277;-41
2021/04/28 04:18:54;;;;;;;19.77;16.55;;;8.10;91.80;;;;;;5093443;28;20276;-41
2021/04/28 04:21:21;;;;;;;18.67;14.73;;;8.10;91.90;;;;;;5093295;28;20206;-40
2021/04/28 04:23:48;;;;;;;17.98;16.00;;;8.00;92.00;;;;;;5093502;28;20268;-40
2021/04/28 04:26:16;;;;;;;19.42;16.23;;;8.10;92.10;;;;;;5093658;28;20297;-40
2021/04/28 04:28:43;;;;;;;15.63;13.77;;;8.10;92.10;;;;;;5093500;28;20218;-41
2021/04/28 04:31:10;;;;;;;17.52;14.70;;;8.10;92.10;;;;;;5093334;28;20775;-41
2021/04/28 04:33:38;;;;;;;16.25;13.45;;;8.20;92.10;;;;;;5093174;28;20230;-40
2021/04/28 04:36:05;;;;;;;16.80;14.02;;;8.30;92.10;;;;;;5093043;28;20617;-39
2021/04/28 04:38:32;;;;;;;18.13;12.68;;;8.30;92.00;;;;;;5093041;28;20293;-39
2021/04/28 04:40:59;;;;;;;16.98;14.88;;;8.40;91.90;;;;;;5093143;28;20217;-40
2021/04/28 04:43:26;;;;;;;25.20;14.98;;;8.40;91.90;;;;;;5092887;28;20203;-41
2021/04/28 04:45:53;;;;;;;18.60;14.63;;;8.50;91.90;;;;;;5093052;28;20340;-40
2021/04/28 04:48:20;;;;;;;15.77;14.02;;;8.50;91.80;;;;;;5092906;28;20573;-40
2021/04/28 04:50:48;;;;;;;16.60;14.20;;;8.60;91.80;;;;;;5092603;28;20302;-40
2021/04/28 04:53:15;;;;;;;16.95;13.38;;;8.70;91.70;;;;;;5092760;28;20254;-40
2021/04/28 04:55:42;;;;;;;20.20;15.15;;;8.70;91.60;;;;;;5093033;28;20256;-40
2021/04/28 04:58:09;;;;;;;16.73;14.90;;;8.80;91.50;;;;;;5092773;28;20249;-40
2021/04/28 05:00:36;;;;;;;16.35;14.73;;;8.80;91.40;;;;;;5092672;28;20531;-41
2021/04/28 05:03:03;;;;;;;22.33;14.80;;;8.90;91.40;;;;;;5092874;28;20249;-43
2021/04/28 05:05:30;;;;;;;15.77;13.75;;;8.90;91.30;;;;;;5092598;28;20239;-42
2021/04/28 05:07:58;;;;;;;15.65;14.07;;;8.90;91.30;;;;;;5092725;28;20657;-43
2021/04/28 05:10:25;;;;;;;16.90;14.65;;;9.00;91.20;;;;;;5092799;28;20293;-42
2021/04/28 05:12:52;;;;;;;21.23;15.00;;;9.00;91.40;;;;;;5092573;28;20207;-40
2021/04/28 05:15:19;;;;;;;21.23;14.52;;;9.00;91.00;;;;;;5092124;28;20236;-40
2021/04/28 05:17:46;;;;;;;16.63;14.80;;;9.10;91.00;;;;;;5092289;28;20631;-41
2021/04/28 05:20:14;;;;;;;17.48;15.65;;;9.20;90.90;;;;;;5092028;28;20216;-41
2021/04/28 05:22:42;;;;;;;21.25;15.27;;;9.30;90.70;;;;;;5092553;28;20214;-40
2021/04/28 05:25:13;;;;;;;15.77;14.13;;;9.30;90.60;;;;;;5091336;28;20202;-40
2021/04/28 05:27:40;;;;;;;17.75;15.20;;;9.40;90.40;;;;;;5092384;28;20238;-40
2021/04/28 05:30:09;;;;;;;15.98;14.40;;;9.40;90.30;;;;;;5092157;28;20293;-40
2021/04/28 05:32:36;;;;;;;18.65;14.27;;;9.50;90.20;;;;;;5092238;28;20285;-40
2021/04/28 05:35:05;;;;;;;16.48;13.40;;;9.60;90.10;;;;;;5092485;28;20226;-40
2021/04/28 05:37:32;;;;;;;15.60;13.77;;;9.60;90.00;;;;;;5092280;28;20269;-41
2021/04/28 05:39:59;;;;;;;14.75;13.32;;;9.70;89.60;;;;;;5092106;28;20210;-41
2021/04/28 05:42:26;;;;;;;18.45;14.18;;;9.80;89.30;;;;;;5092133;28;20213;-41
2021/04/28 05:44:53;;;;;;;18.95;15.02;;;9.80;89.10;;;;;;5092110;28;20305;-41
2021/04/28 05:47:20;;;;;;;17.73;14.63;;;9.90;88.90;;;;;;5092015;28;20214;-40
2021/04/28 05:49:47;;;;;;;16.20;14.35;;;10.00;88.80;;;;;;5091945;28;20732;-39
2021/04/28 05:52:14;;;;;;;18.77;14.88;;;10.00;88.60;;;;;;5092178;28;20237;-40
2021/04/28 05:54:41;;;;;;;16.60;13.73;;;10.20;88.50;;;;;;5091897;28;20237;-40
2021/04/28 05:57:31;;;;;;;14.98;13.60;;;10.20;88.40;;;;;;5091880;28;20603;-39
2021/04/28 05:59:58;;;;;;;16.48;14.13;;;10.20;88.40;;;;;;5091969;28;20330;-39
2021/04/28 06:02:25;;;;;;;17.33;14.45;;;10.30;88.40;;;;;;5092017;28;20251;-38
2021/04/28 06:04:53;;;;;;;22.52;18.52;;;10.40;88.40;;;;;;5091555;28;20673;-39
2021/04/28 06:07:20;;;;;;;17.23;14.93;;;10.40;88.30;;;;;;5092028;28;20211;-39
2021/04/28 06:09:47;;;;;;;19.02;14.70;;;10.40;88.50;;;;;;5091927;28;20624;-40
2021/04/28 06:12:14;;;;;;;16.05;13.32;;;10.30;88.70;;;;;;5091844;28;20211;-40
2021/04/28 06:14:42;;;;;;;16.88;14.40;;;10.30;88.90;;;;;;5092047;28;20222;-39
2021/04/28 06:17:11;;;;;;;17.73;15.88;;;10.30;88.90;;;;;;5091929;28;20298;-40
2021/04/28 06:19:38;;;;;;;16.48;13.35;;;10.40;88.70;;;;;;5091888;28;20290;-40
2021/04/28 06:22:06;;;;;;;14.85;13.32;;;10.40;88.70;;;;;;5091760;28;20207;-38
2021/04/28 06:24:37;;;;;;;16.52;14.85;;;10.40;88.70;;;;;;5091614;28;20256;-38
2021/04/28 06:27:06;;;;;;;32.72;29.30;;;10.40;88.80;;;;;;5094713;28;20233;-38
2021/04/28 06:29:33;;;;;;;29.27;24.48;;;10.50;88.70;;;;;;5095993;28;20298;-38
2021/04/28 06:32:02;;;;;;;16.88;15.10;;;10.50;88.60;;;;;;5095812;28;20301;-39
2021/04/28 06:34:30;;;;;;;17.38;15.43;;;10.50;88.70;;;;;;5095587;28;20222;-40
2021/04/28 06:36:57;;;;;;;15.73;14.02;;;10.60;88.60;;;;;;5095507;28;20289;-40
2021/04/28 06:39:24;;;;;;;25.25;21.27;;;10.70;88.50;;;;;;5095276;28;20289;-39
2021/04/28 06:41:51;;;;;;;19.60;16.30;;;10.80;88.20;;;;;;5095507;28;20242;-39
2021/04/28 06:44:18;;;;;;;17.77;15.73;;;10.90;88.10;;;;;;5095463;28;20206;-39
2021/04/28 06:46:45;;;;;;;17.88;14.75;;;11.00;87.90;;;;;;5095257;28;20398;-40
2021/04/28 06:49:13;;;;;;;16.00;14.50;;;11.20;87.60;;;;;;5095441;28;20217;-41
2021/04/28 06:51:40;;;;;;;23.35;19.70;;;11.30;87.30;;;;;;5095118;28;20294;-42
2021/04/28 06:54:07;;;;;;;30.02;26.48;;;11.40;86.80;;;;;;5095066;28;20772;-42
2021/04/28 06:56:34;;;;;;;29.80;23.65;;;11.40;86.80;;;;;;5095266;28;20400;-43
2021/04/28 06:59:01;;;;;;;20.23;18.25;;;11.50;86.90;;;;;;5095027;28;20234;-43
2021/04/28 07:01:28;;;;;;;15.95;14.18;;;11.50;86.80;;;;;;5095108;28;20214;-44
2021/04/28 07:03:56;;;;;;;16.40;14.70;;;11.70;86.50;;;;;;5094981;28;20203;-42
2021/04/28 07:06:24;;;;;;;15.93;14.25;;;11.80;86.10;;;;;;5094777;28;20247;-43
2021/04/28 07:08:50;;;;;;;15.13;13.55;;;11.90;85.90;;;;;;5095104;28;20257;-44
2021/04/28 07:11:17;;;;;;;16.00;14.60;;;12.00;85.70;;;;;;5094811;28;20660;-40
2021/04/28 07:13:44;;;;;;;14.82;13.38;;;12.10;85.60;;;;;;5094827;28;20412;-40
2021/04/28 07:16:11;;;;;;;14.50;13.23;;;12.20;85.50;;;;;;5094763;28;20575;-40
2021/04/28 07:18:38;;;;;;;19.60;17.80;;;12.30;85.10;;;;;;5095027;28;20302;-39
2021/04/28 07:21:05;;;;;;;19.65;17.60;;;12.40;84.70;;;;;;5094607;28;20703;-40
2021/04/28 07:23:34;;;;;;;16.80;15.00;;;12.60;84.40;;;;;;5094967;28;20229;-40
2021/04/28 07:26:01;;;;;;;15.45;13.95;;;12.70;84.30;;;;;;5094530;28;20301;-40
2021/04/28 07:28:29;;;;;;;19.13;15.23;;;12.80;84.10;;;;;;5094302;28;20242;-41
2021/04/28 07:30:56;;;;;;;15.07;13.63;;;12.90;83.70;;;;;;5094455;28;20215;-40
2021/04/28 07:33:23;;;;;;;31.30;23.75;;;13.00;83.50;;;;;;5094336;28;20321;-39
2021/04/28 07:35:50;;;;;;;20.83;15.27;;;13.00;83.40;;;;;;5094412;28;20293;-40
2021/04/28 07:38:16;;;;;;;19.25;13.95;;;13.10;83.30;;;;;;5094139;28;20242;-40
2021/04/28 07:40:44;;;;;;;16.75;14.82;;;13.20;83.20;;;;;;5094243;28;20252;-39
2021/04/28 07:43:12;;;;;;;14.52;13.07;;;13.30;82.90;;;;;;5094181;28;20259;-39
2021/04/28 07:45:39;;;;;;;15.35;13.95;;;13.40;82.60;;;;;;5094128;28;20260;-39
2021/04/28 07:48:08;;;;;;;15.68;14.05;;;13.50;82.30;;;;;;5093792;28;20210;-40
2021/04/28 07:50:36;;;;;;;14.20;12.80;;;13.70;82.00;;;;;;5093942;28;20211;-40
2021/04/28 07:53:03;;;;;;;14.75;13.30;;;13.80;81.60;;;;;;5093985;28;20297;-41
2021/04/28 07:55:31;;;;;;;15.00;13.63;;;14.00;81.30;;;;;;5093629;28;20231;-41
2021/04/28 07:57:59;;;;;;;13.75;12.35;;;14.10;80.90;;;;;;5093696;28;20206;-41
2021/04/28 08:00:28;;;;;;;15.57;13.10;;;14.30;80.50;;;;;;5093791;28;20302;-41
2021/04/28 08:02:55;;;;;;;13.98;12.70;;;14.50;80.00;;;;;;5093578;28;20243;-40
2021/04/28 08:05:22;;;;;;;16.42;14.70;;;14.60;79.50;;;;;;5093366;28;20234;-40
2021/04/28 08:07:50;;;;;;;15.40;14.00;;;14.80;79.00;;;;;;5093427;28;20289;-41
2021/04/28 08:10:17;;;;;;;17.15;15.25;;;14.80;78.70;;;;;;5093470;28;20696;-42
2021/04/28 08:12:45;;;;;;;15.00;13.60;;;14.90;78.70;;;;;;5093411;28;20212;-43
2021/04/28 08:15:14;;;;;;;16.02;14.52;;;15.00;78.60;;;;;;5093231;28;20226;-40
2021/04/28 08:17:41;;;;;;;13.63;12.40;;;15.10;78.40;;;;;;5093934;28;20234;-42
2021/04/28 08:20:10;;;;;;;16.33;14.52;;;15.20;78.20;;;;;;5093144;28;20214;-41
2021/04/28 08:22:37;;;;;;;18.52;14.55;;;15.30;78.30;;;;;;5093209;28;20683;-40
2021/04/28 08:25:07;;;;;;;14.75;13.45;;;15.40;78.20;;;;;;5093091;28;20290;-40
2021/04/28 08:27:34;;;;;;;15.85;12.70;;;15.50;78.00;;;;;;5092968;28;20301;-41
2021/04/28 08:30:02;;;;;;;14.30;12.90;;;15.60;77.70;;;;;;5093580;28;20293;-39
2021/04/28 08:32:29;;;;;;;25.70;21.98;;;15.60;77.70;;;;;;5093510;28;20230;-39
2021/04/28 08:34:56;;;;;;;14.02;12.27;;;15.70;77.20;;;;;;5093092;28;20321;-40
2021/04/28 08:37:23;;;;;;;15.82;12.20;;;15.90;76.80;;;;;;5093422;28;20293;-40
2021/04/28 08:39:50;;;;;;;14.73;12.07;;;16.00;76.20;;;;;;5092927;28;20641;-41
2021/04/28 08:42:18;;;;;;;13.50;12.20;;;16.10;75.30;;;;;;5093093;28;20282;-41
2021/04/28 08:44:45;;;;;;;16.25;12.80;;;16.30;74.50;;;;;;5093447;28;20308;-41
2021/04/28 08:47:13;;;;;;;13.77;11.30;;;16.40;74.10;;;;;;5092980;28;20203;-40
2021/04/28 08:49:42;;;;;;;13.43;11.40;;;16.50;74.50;;;;;;5092720;28;20214;-40
2021/04/28 08:52:09;;;;;;;13.00;11.60;;;16.60;73.20;;;;;;5092996;28;20301;-40
2021/04/28 08:54:47;;;;;;;13.07;11.73;;;16.80;72.10;;;;;;5092620;28;20329;-39
2021/04/28 08:57:14;;;;;;;12.65;11.35;;;16.90;71.50;;;;;;5092912;28;20253;-41
2021/04/28 08:59:42;;;;;;;12.20;11.00;;;17.00;71.30;;;;;;5092525;28;20297;-40
2021/04/28 09:02:21;;;;;;;12.63;11.00;;;17.10;70.40;;;;;;5092551;28;20345;-42
2021/04/28 09:05:06;;;;;;;11.25;10.00;;;17.20;69.20;;;;;;5092521;28;20730;-41
2021/04/28 09:07:33;;;;;;;12.38;11.25;;;17.20;68.50;;;;;;5091628;28;20661;-40
2021/04/28 09:10:02;;;;;;;11.95;10.65;;;17.20;68.70;;;;;;5092954;28;20221;-41
2021/04/28 09:12:29;;;;;;;17.88;10.90;;;17.30;67.90;;;;;;5092684;28;20214;-40
2021/04/28 09:14:56;;;;;;;11.52;10.15;;;17.40;67.60;;;;;;5092543;28;20237;-40
2021/04/28 09:17:23;;;;;;;10.65;9.50;;;17.40;66.90;;;;;;5092224;28;20274;-40
2021/04/28 09:19:54;;;;;;;12.77;10.43;;;17.50;66.20;;;;;;5092397;28;20219;-40
2021/04/28 09:22:22;;;;;;;13.18;10.45;;;17.50;65.70;;;;;;5092537;28;20206;-41
2021/04/28 09:24:51;;;;;;;11.57;10.15;;;17.60;65.10;;;;;;5092173;28;20286;-41
2021/04/28 09:27:30;;;;;;;11.85;9.38;;;17.70;64.20;;;;;;5091971;28;20245;-41
2021/04/28 09:29:57;;;;;;;11.32;9.45;;;17.80;61.70;;;;;;5092036;28;20245;-41
2021/04/28 09:32:31;;;;;;;10.10;9.20;;;17.70;61.50;;;;;;5091946;28;20691;-40
2021/04/28 09:35:13;;;;;;;14.02;10.18;;;17.70;60.80;;;;;;5092205;28;20257;-41
2021/04/28 09:37:51;;;;;;;11.68;10.57;;;17.80;60.70;;;;;;5091853;28;20757;-41
2021/04/28 09:40:19;;;;;;;10.20;9.15;;;18.00;60.90;;;;;;5091849;28;20376;-40
2021/04/28 09:42:56;;;;;;;13.82;10.38;;;18.10;60.30;;;;;;5091751;28;20237;-40
2021/04/28 09:45:37;;;;;;;13.65;10.32;;;18.30;59.60;;;;;;5091987;28;20206;-41
2021/04/28 09:48:05;;;;;;;10.38;9.32;;;18.40;58.90;;;;;;5091922;28;20646;-41
2021/04/28 09:50:32;;;;;;;13.60;10.75;;;18.50;59.00;;;;;;5092148;28;20206;-42
2021/04/28 09:53:01;;;;;;;12.25;10.95;;;18.60;58.20;;;;;;5091939;28;20244;-40
2021/04/28 09:55:28;;;;;;;13.07;11.35;;;18.60;57.80;;;;;;5091976;28;20226;-40
2021/04/28 09:57:55;;;;;;;22.35;18.33;;;18.70;57.70;;;;;;5092345;28;20302;-41
2021/04/28 10:00:23;;;;;;;13.70;12.07;;;18.70;57.60;;;;;;5092269;28;20275;-41
2021/04/28 10:02:52;;;;;;;55.83;34.17;;;18.70;57.70;;;;;;5096300;28;20238;-42
2021/04/28 10:05:25;;;;;;;21.35;15.38;;;18.80;57.80;;;;;;5096094;28;20515;-41
2021/04/28 10:07:54;;;;;;;15.38;12.70;;;18.90;57.40;;;;;;5096551;28;20211;-44
2021/04/28 10:10:22;;;;;;;14.20;10.77;;;19.00;57.20;;;;;;5096361;28;20206;-41
2021/04/28 10:12:49;;;;;;;13.73;10.90;;;19.10;56.70;;;;;;5096141;28;20203;-42
2021/04/28 10:15:18;;;;;;;13.07;10.35;;;19.20;56.90;;;;;;5096017;28;20659;-41
2021/04/28 10:17:46;;;;;;;12.07;10.88;;;19.40;55.80;;;;;;5096100;28;20214;-41
2021/04/28 10:20:14;;;;;;;15.48;11.50;;;19.50;55.60;;;;;;5112017;28;20636;-41
2021/04/28 10:22:41;;;;;;;14.00;12.55;;;19.70;55.20;;;;;;5116355;28;20261;-41
2021/04/28 10:25:10;;;;;;;12.77;10.75;;;19.70;54.50;;;;;;5114078;28;20736;-42
2021/04/28 10:27:39;;;;;;;14.18;10.80;;;19.70;53.90;;;;;;5097539;28;20224;-40
2021/04/28 10:30:07;;;;;;;21.25;14.18;;;19.90;53.90;;;;;;5095791;28;20233;-40
2021/04/28 10:32:35;;;;;;;13.75;12.30;;;20.00;52.80;;;;;;5095710;28;20740;-39
2021/04/28 10:35:07;;;;;;;12.65;9.77;;;20.00;53.00;;;;;;5095829;28;20586;-39
2021/04/28 10:37:35;;;;;;;10.73;9.68;;;20.00;52.20;;;;;;5095952;28;20269;-40
2021/04/28 10:40:10;;;;;;;11.35;10.25;;;20.10;52.00;;;;;;5095793;28;20585;-39
2021/04/28 10:42:38;;;;;;;10.85;9.85;;;20.10;51.60;;;;;;5095487;28;20206;-39
2021/04/28 10:45:08;;;;;;;11.15;10.02;;;20.10;52.30;;;;;;5095373;28;20202;-39
2021/04/28 10:47:40;;;;;;;12.02;10.85;;;20.10;51.70;;;;;;5095043;28;20652;-39
2021/04/28 10:50:19;;;;;;;11.07;9.95;;;20.00;51.30;;;;;;5095264;28;20210;-39
2021/04/28 10:52:58;;;;;;;12.18;9.82;;;20.00;51.40;;;;;;5095250;28;20551;-39
2021/04/28 10:55:46;;;;;;;12.63;10.45;;;20.00;51.40;;;;;;5095097;28;20232;-39
2021/04/28 10:58:38;;;;;;;11.70;10.50;;;20.10;51.20;;;;;;5095462;28;20207;-39
2021/04/28 11:01:40;;;;;;;12.82;10.27;;;20.30;51.20;;;;;;5095327;28;20241;-39
2021/04/28 11:04:13;;;;;;;12.60;10.13;;;20.50;50.30;;;;;;5094855;28;20281;-38
2021/04/28 11:06:48;;;;;;;15.75;12.00;;;20.60;50.40;;;;;;5095211;28;20238;-39
2021/04/28 11:09:20;;;;;;;10.75;9.65;;;20.70;50.00;;;;;;5095199;28;20210;-39
2021/04/28 11:11:58;;;;;;;12.43;11.13;;;20.90;49.60;;;;;;5094536;28;20242;-38
2021/04/28 11:14:49;;;;;;;16.08;13.35;;;21.10;49.20;;;;;;5094892;28;20273;-39
2021/04/28 11:17:27;;;;;;;11.77;10.57;;;21.20;48.70;;;;;;5094636;28;20210;-39
2021/04/28 11:19:57;;;;;;;12.25;9.98;;;21.30;48.50;;;;;;5094908;28;20667;-39
2021/04/28 11:22:29;;;;;;;15.93;10.82;;;21.40;48.00;;;;;;5094537;28;20274;-39
2021/04/28 11:25:17;;;;;;;11.32;9.85;;;21.50;47.70;;;;;;5094356;28;20238;-39
2021/04/28 11:27:51;;;;;;;12.85;10.48;;;21.80;47.00;;;;;;5094641;28;20600;-39
2021/04/28 11:30:27;;;;;;;12.23;9.95;;;21.90;46.70;;;;;;5094259;28;20210;-39
2021/04/28 11:33:20;;;;;;;10.80;9.63;;;22.00;46.10;;;;;;5094819;28;20285;-39
2021/04/28 11:36:08;;;;;;;12.00;10.50;;;22.00;46.00;;;;;;5094585;28;20227;-38
2021/04/28 11:38:39;;;;;;;11.32;10.25;;;22.20;45.90;;;;;;5094618;28;20207;-38
2021/04/28 11:41:10;;;;;;;11.32;10.18;;;22.40;45.70;;;;;;5094358;28;20211;-39
2021/04/28 11:43:38;;;;;;;11.13;10.02;;;22.60;45.40;;;;;;5094410;28;20623;-39
2021/04/28 11:46:07;;;;;;;13.60;11.88;;;22.70;45.10;;;;;;5094398;28;20242;-39
2021/04/28 11:48:37;;;;;;;13.68;10.35;;;22.90;44.50;;;;;;5094338;28;20628;-39
2021/04/28 11:51:07;;;;;;;11.70;9.88;;;23.00;44.30;;;;;;5094021;28;20554;-38
2021/04/28 11:53:40;;;;;;;11.13;10.02;;;23.00;43.90;;;;;;5093801;28;20256;-38
2021/04/28 11:56:07;;;;;;;10.27;9.27;;;22.90;43.40;;;;;;5093833;28;20314;-39
2021/04/28 11:58:34;;;;;;;11.27;9.93;;;22.80;43.90;;;;;;5093992;28;20207;-39
2021/04/28 12:01:07;;;;;;;12.57;10.43;;;22.90;43.80;;;;;;5093948;28;20293;-39
2021/04/28 12:03:51;;;;;;;12.02;9.85;;;23.00;43.20;;;;;;5094048;28;20207;-39
2021/04/28 12:06:43;;;;;;;10.55;9.45;;;23.00;43.20;;;;;;5091451;28;20244;-39
2021/04/28 12:09:16;;;;;;;10.32;9.23;;;23.10;43.00;;;;;;5093738;28;20249;-39
2021/04/28 12:11:45;;;;;;;10.20;9.23;;;23.10;42.90;;;;;;5093740;28;20679;-39
2021/04/28 12:14:13;;;;;;;10.45;9.45;;;23.10;43.00;;;;;;5093446;28;20606;-39
2021/04/28 12:16:42;;;;;;;11.13;10.02;;;23.10;43.20;;;;;;5093601;28;20217;-39
2021/04/28 12:19:12;;;;;;;10.40;9.30;;;23.20;43.00;;;;;;5093677;28;20207;-39
2021/04/28 12:21:51;;;;;;;12.07;10.65;;;23.30;42.60;;;;;;5093552;28;20683;-40
2021/04/28 12:24:27;;;;;;;11.70;10.60;;;23.30;42.40;;;;;;5092783;28;20296;-39
2021/04/28 12:27:21;;;;;;;9.43;8.52;;;23.10;42.50;;;;;;5093361;28;20628;-39
2021/04/28 12:29:51;;;;;;;12.20;10.23;;;22.80;42.90;;;;;;5093257;28;20293;-39
2021/04/28 12:32:20;;;;;;;12.13;9.35;;;22.70;43.20;;;;;;5093411;28;20289;-39
2021/04/28 12:34:48;;;;;;;11.50;9.57;;;22.80;43.10;;;;;;5093188;28;20276;-39
2021/04/28 12:37:23;;;;;;;13.52;9.68;;;22.70;42.90;;;;;;5093227;28;20203;-39
2021/04/28 12:39:53;;;;;;;13.25;9.32;;;22.70;43.00;;;;;;5093089;28;20296;-39
2021/04/28 12:42:22;;;;;;;10.93;9.20;;;22.80;43.00;;;;;;5093231;28;20210;-39
2021/04/28 12:44:50;;;;;;;11.77;10.55;;;22.80;43.00;;;;;;5093048;28;20203;-38